sensor_id;sensor_type;location;lat;lon;timestamp;P1;durP1;ratioP1;P2;durP2;ratioP2
24216;SDS011;12356;49.386;8.688;2023-03-01T00:00:49;21.02;;;11.07;;
24216;SDS011;12356;49.386;8.688;2023-03-01T00:03:20;19.33;;;10.40;;
24216;SDS011;12356;49.386;8.688;2023-03-01T00:05:50;19.92;;;11.00;;
24216;SDS011;12356;49.386;8.688;2023-03-01T00:08:21;20.60;;;10.57;;
24216;SDS011;12356;49.386;8.688;2023-03-01T00:11:06;21.75;;;11.32;;
24216;SDS011;12356;49.386;8.688;2023-03-01T00:13:38;18.92;;;10.20;;
24216;SDS011;12356;49.386;8.688;2023-03-01T00:16:10;21.40;;;11.32;;
24216;SDS011;12356;49.386;8.688;2023-03-01T00:18:43;21.10;;;11.70;;
24216;SDS011;12356;49.386;8.688;2023-03-01T00:21:14;21.23;;;10.70;;
24216;SDS011;12356;49.386;8.688;2023-03-01T00:23:45;19.75;;;10.77;;
24216;SDS011;12356;49.386;8.688;2023-03-01T00:26:15;22.88;;;11.27;;
24216;SDS011;12356;49.386;8.688;2023-03-01T00:31:20;20.90;;;11.13;;
24216;SDS011;12356;49.386;8.688;2023-03-01T00:33:53;22.00;;;10.95;;
24216;SDS011;12356;49.386;8.688;2023-03-01T00:36:28;22.10;;;11.38;;
24216;SDS011;12356;49.386;8.688;2023-03-01T00:39:02;24.08;;;10.73;;
24216;SDS011;12356;49.386;8.688;2023-03-01T00:41:34;20.52;;;11.07;;
24216;SDS011;12356;49.386;8.688;2023-03-01T00:44:04;23.02;;;11.43;;
24216;SDS011;12356;49.386;8.688;2023-03-01T00:46:35;22.88;;;12.82;;
24216;SDS011;12356;49.386;8.688;2023-03-01T00:49:06;22.73;;;11.50;;
24216;SDS011;12356;49.386;8.688;2023-03-01T00:51:36;19.85;;;11.10;;
24216;SDS011;12356;49.386;8.688;2023-03-01T00:54:07;22.80;;;11.55;;
24216;SDS011;12356;49.386;8.688;2023-03-01T00:56:38;23.67;;;11.70;;
24216;SDS011;12356;49.386;8.688;2023-03-01T00:59:09;22.35;;;11.93;;
24216;SDS011;12356;49.386;8.688;2023-03-01T01:01:39;21.15;;;11.60;;
24216;SDS011;12356;49.386;8.688;2023-03-01T01:04:12;22.85;;;11.48;;
24216;SDS011;12356;49.386;8.688;2023-03-01T01:06:44;21.67;;;11.23;;
24216;SDS011;12356;49.386;8.688;2023-03-01T01:09:16;22.60;;;11.73;;
24216;SDS011;12356;49.386;8.688;2023-03-01T01:11:50;27.40;;;12.40;;
24216;SDS011;12356;49.386;8.688;2023-03-01T01:14:21;22.55;;;11.82;;
24216;SDS011;12356;49.386;8.688;2023-03-01T01:16:52;22.55;;;11.85;;
24216;SDS011;12356;49.386;8.688;2023-03-01T01:19:23;24.75;;;12.25;;
24216;SDS011;12356;49.386;8.688;2023-03-01T01:21:54;26.70;;;12.07;;
24216;SDS011;12356;49.386;8.688;2023-03-01T01:24:24;24.20;;;12.50;;
24216;SDS011;12356;49.386;8.688;2023-03-01T01:26:55;23.58;;;12.48;;
24216;SDS011;12356;49.386;8.688;2023-03-01T01:29:26;22.85;;;12.60;;
24216;SDS011;12356;49.386;8.688;2023-03-01T01:31:56;23.70;;;12.38;;
24216;SDS011;12356;49.386;8.688;2023-03-01T01:34:27;21.70;;;11.88;;
24216;SDS011;12356;49.386;8.688;2023-03-01T01:36:57;25.17;;;12.65;;
24216;SDS011;12356;49.386;8.688;2023-03-01T01:39:33;23.08;;;12.65;;
24216;SDS011;12356;49.386;8.688;2023-03-01T01:42:05;23.52;;;12.60;;
24216;SDS011;12356;49.386;8.688;2023-03-01T01:44:35;24.15;;;13.10;;
24216;SDS011;12356;49.386;8.688;2023-03-01T01:47:07;24.00;;;12.93;;
24216;SDS011;12356;49.386;8.688;2023-03-01T01:49:50;23.45;;;12.63;;
24216;SDS011;12356;49.386;8.688;2023-03-01T01:52:27;26.58;;;13.27;;
24216;SDS011;12356;49.386;8.688;2023-03-01T01:57:51;22.67;;;11.95;;
24216;SDS011;12356;49.386;8.688;2023-03-01T02:00:25;25.63;;;12.98;;
24216;SDS011;12356;49.386;8.688;2023-03-01T02:03:05;23.52;;;12.73;;
24216;SDS011;12356;49.386;8.688;2023-03-01T02:05:57;23.77;;;12.60;;
24216;SDS011;12356;49.386;8.688;2023-03-01T02:08:35;26.63;;;13.43;;
24216;SDS011;12356;49.386;8.688;2023-03-01T02:11:08;25.25;;;13.15;;
24216;SDS011;12356;49.386;8.688;2023-03-01T02:13:40;25.05;;;13.30;;
24216;SDS011;12356;49.386;8.688;2023-03-01T02:16:13;19.23;;;9.77;;
24216;SDS011;12356;49.386;8.688;2023-03-01T02:18:44;23.67;;;13.27;;
24216;SDS011;12356;49.386;8.688;2023-03-01T02:27:40;26.67;;;13.07;;
24216;SDS011;12356;49.386;8.688;2023-03-01T02:30:28;26.75;;;12.80;;
24216;SDS011;12356;49.386;8.688;2023-03-01T02:33:01;24.77;;;13.05;;
24216;SDS011;12356;49.386;8.688;2023-03-01T02:35:35;24.95;;;13.00;;
24216;SDS011;12356;49.386;8.688;2023-03-01T02:38:08;24.20;;;12.98;;
24216;SDS011;12356;49.386;8.688;2023-03-01T02:40:39;28.50;;;13.77;;
24216;SDS011;12356;49.386;8.688;2023-03-01T02:43:11;25.63;;;13.60;;
24216;SDS011;12356;49.386;8.688;2023-03-01T02:45:47;25.13;;;12.95;;
24216;SDS011;12356;49.386;8.688;2023-03-01T02:48:20;26.55;;;13.10;;
24216;SDS011;12356;49.386;8.688;2023-03-01T02:54:16;25.27;;;13.25;;
24216;SDS011;12356;49.386;8.688;2023-03-01T02:56:57;23.58;;;12.85;;
24216;SDS011;12356;49.386;8.688;2023-03-01T02:59:29;25.65;;;13.52;;
24216;SDS011;12356;49.386;8.688;2023-03-01T03:02:02;24.08;;;13.00;;
24216;SDS011;12356;49.386;8.688;2023-03-01T03:04:33;25.63;;;13.95;;
24216;SDS011;12356;49.386;8.688;2023-03-01T03:07:04;26.42;;;13.57;;
24216;SDS011;12356;49.386;8.688;2023-03-01T03:09:34;27.50;;;13.75;;
24216;SDS011;12356;49.386;8.688;2023-03-01T03:12:05;26.65;;;13.82;;
24216;SDS011;12356;49.386;8.688;2023-03-01T03:14:35;27.40;;;13.45;;
24216;SDS011;12356;49.386;8.688;2023-03-01T03:17:06;26.35;;;13.60;;
24216;SDS011;12356;49.386;8.688;2023-03-01T03:19:37;28.17;;;13.90;;
24216;SDS011;12356;49.386;8.688;2023-03-01T03:22:07;26.05;;;13.63;;
24216;SDS011;12356;49.386;8.688;2023-03-01T03:24:38;26.27;;;13.50;;
24216;SDS011;12356;49.386;8.688;2023-03-01T03:27:09;28.15;;;13.98;;
24216;SDS011;12356;49.386;8.688;2023-03-01T03:29:40;24.98;;;13.32;;
24216;SDS011;12356;49.386;8.688;2023-03-01T03:32:10;27.52;;;13.80;;
24216;SDS011;12356;49.386;8.688;2023-03-01T03:34:41;26.40;;;14.10;;
24216;SDS011;12356;49.386;8.688;2023-03-01T03:37:11;27.92;;;13.77;;
24216;SDS011;12356;49.386;8.688;2023-03-01T03:40:02;25.75;;;13.60;;
24216;SDS011;12356;49.386;8.688;2023-03-01T03:42:33;27.30;;;13.77;;
24216;SDS011;12356;49.386;8.688;2023-03-01T03:45:03;27.33;;;13.85;;
24216;SDS011;12356;49.386;8.688;2023-03-01T03:47:34;27.77;;;14.05;;
24216;SDS011;12356;49.386;8.688;2023-03-01T03:50:05;27.52;;;14.52;;
24216;SDS011;12356;49.386;8.688;2023-03-01T03:52:35;27.48;;;14.27;;
24216;SDS011;12356;49.386;8.688;2023-03-01T03:55:07;29.35;;;14.25;;
24216;SDS011;12356;49.386;8.688;2023-03-01T03:57:40;28.40;;;14.52;;
24216;SDS011;12356;49.386;8.688;2023-03-01T04:00:12;26.90;;;14.60;;
24216;SDS011;12356;49.386;8.688;2023-03-01T04:02:43;29.88;;;14.60;;
24216;SDS011;12356;49.386;8.688;2023-03-01T04:05:14;26.48;;;13.70;;
24216;SDS011;12356;49.386;8.688;2023-03-01T04:07:47;29.88;;;14.85;;
24216;SDS011;12356;49.386;8.688;2023-03-01T04:10:17;25.98;;;14.75;;
24216;SDS011;12356;49.386;8.688;2023-03-01T04:12:48;29.80;;;15.40;;
24216;SDS011;12356;49.386;8.688;2023-03-01T04:15:18;30.95;;;16.25;;
24216;SDS011;12356;49.386;8.688;2023-03-01T04:17:50;31.08;;;15.32;;
24216;SDS011;12356;49.386;8.688;2023-03-01T04:20:26;28.67;;;14.45;;
24216;SDS011;12356;49.386;8.688;2023-03-01T04:23:03;31.50;;;14.82;;
24216;SDS011;12356;49.386;8.688;2023-03-01T04:25:47;28.63;;;14.40;;
24216;SDS011;12356;49.386;8.688;2023-03-01T04:28:27;27.15;;;14.32;;
24216;SDS011;12356;49.386;8.688;2023-03-01T04:31:05;30.50;;;14.57;;
24216;SDS011;12356;49.386;8.688;2023-03-01T04:33:45;32.22;;;14.63;;
24216;SDS011;12356;49.386;8.688;2023-03-01T04:36:24;28.40;;;14.82;;
24216;SDS011;12356;49.386;8.688;2023-03-01T04:38:56;31.27;;;15.00;;
24216;SDS011;12356;49.386;8.688;2023-03-01T04:41:27;29.73;;;14.38;;
24216;SDS011;12356;49.386;8.688;2023-03-01T04:43:57;28.38;;;13.85;;
24216;SDS011;12356;49.386;8.688;2023-03-01T04:46:29;31.30;;;14.57;;
24216;SDS011;12356;49.386;8.688;2023-03-01T04:49:00;30.75;;;15.07;;
24216;SDS011;12356;49.386;8.688;2023-03-01T04:51:31;30.70;;;14.85;;
24216;SDS011;12356;49.386;8.688;2023-03-01T04:54:02;30.20;;;15.27;;
24216;SDS011;12356;49.386;8.688;2023-03-01T04:56:33;27.58;;;14.73;;
24216;SDS011;12356;49.386;8.688;2023-03-01T04:59:04;29.98;;;14.93;;
24216;SDS011;12356;49.386;8.688;2023-03-01T05:01:35;33.80;;;15.60;;
24216;SDS011;12356;49.386;8.688;2023-03-01T05:04:06;29.48;;;15.35;;
24216;SDS011;12356;49.386;8.688;2023-03-01T05:06:42;30.17;;;15.48;;
24216;SDS011;12356;49.386;8.688;2023-03-01T05:09:13;30.48;;;14.93;;
24216;SDS011;12356;49.386;8.688;2023-03-01T05:11:44;32.08;;;15.35;;
24216;SDS011;12356;49.386;8.688;2023-03-01T05:14:15;31.50;;;14.95;;
24216;SDS011;12356;49.386;8.688;2023-03-01T05:16:45;28.00;;;14.93;;
24216;SDS011;12356;49.386;8.688;2023-03-01T05:19:16;28.85;;;15.15;;
24216;SDS011;12356;49.386;8.688;2023-03-01T05:21:52;27.73;;;15.20;;
24216;SDS011;12356;49.386;8.688;2023-03-01T05:24:32;29.00;;;14.77;;
24216;SDS011;12356;49.386;8.688;2023-03-01T05:27:04;28.85;;;14.80;;
24216;SDS011;12356;49.386;8.688;2023-03-01T05:29:36;32.03;;;15.88;;
24216;SDS011;12356;49.386;8.688;2023-03-01T05:32:06;28.90;;;15.38;;
24216;SDS011;12356;49.386;8.688;2023-03-01T05:34:38;22.73;;;10.93;;
24216;SDS011;12356;49.386;8.688;2023-03-01T05:37:09;30.95;;;14.95;;
24216;SDS011;12356;49.386;8.688;2023-03-01T05:39:39;28.02;;;14.63;;
24216;SDS011;12356;49.386;8.688;2023-03-01T05:42:11;31.05;;;15.30;;
24216;SDS011;12356;49.386;8.688;2023-03-01T05:44:42;31.95;;;16.02;;
24216;SDS011;12356;49.386;8.688;2023-03-01T05:47:12;35.45;;;15.57;;
24216;SDS011;12356;49.386;8.688;2023-03-01T05:49:43;30.75;;;16.00;;
24216;SDS011;12356;49.386;8.688;2023-03-01T05:52:13;29.45;;;14.82;;
24216;SDS011;12356;49.386;8.688;2023-03-01T05:54:44;28.52;;;15.25;;
24216;SDS011;12356;49.386;8.688;2023-03-01T05:57:15;30.70;;;15.30;;
24216;SDS011;12356;49.386;8.688;2023-03-01T05:59:46;32.28;;;15.43;;
24216;SDS011;12356;49.386;8.688;2023-03-01T06:02:16;30.38;;;15.82;;
24216;SDS011;12356;49.386;8.688;2023-03-01T06:04:47;30.92;;;15.68;;
24216;SDS011;12356;49.386;8.688;2023-03-01T06:07:17;30.73;;;15.05;;
24216;SDS011;12356;49.386;8.688;2023-03-01T06:09:48;33.63;;;16.38;;
24216;SDS011;12356;49.386;8.688;2023-03-01T06:12:19;33.47;;;16.13;;
24216;SDS011;12356;49.386;8.688;2023-03-01T06:14:49;32.38;;;15.57;;
24216;SDS011;12356;49.386;8.688;2023-03-01T06:17:20;31.02;;;16.02;;
24216;SDS011;12356;49.386;8.688;2023-03-01T06:19:50;29.40;;;15.27;;
24216;SDS011;12356;49.386;8.688;2023-03-01T06:22:21;31.92;;;15.73;;
24216;SDS011;12356;49.386;8.688;2023-03-01T06:24:51;30.80;;;15.98;;
24216;SDS011;12356;49.386;8.688;2023-03-01T06:27:22;33.25;;;15.50;;
24216;SDS011;12356;49.386;8.688;2023-03-01T06:29:53;32.30;;;16.42;;
24216;SDS011;12356;49.386;8.688;2023-03-01T06:32:23;29.98;;;15.05;;
24216;SDS011;12356;49.386;8.688;2023-03-01T06:34:54;30.85;;;16.25;;
24216;SDS011;12356;49.386;8.688;2023-03-01T06:37:25;32.25;;;16.20;;
24216;SDS011;12356;49.386;8.688;2023-03-01T06:39:56;34.85;;;15.15;;
24216;SDS011;12356;49.386;8.688;2023-03-01T06:42:27;30.60;;;15.45;;
24216;SDS011;12356;49.386;8.688;2023-03-01T06:44:57;34.40;;;16.17;;
24216;SDS011;12356;49.386;8.688;2023-03-01T06:47:28;32.28;;;15.82;;
24216;SDS011;12356;49.386;8.688;2023-03-01T06:49:59;33.33;;;15.48;;
24216;SDS011;12356;49.386;8.688;2023-03-01T06:52:30;32.85;;;16.00;;
24216;SDS011;12356;49.386;8.688;2023-03-01T06:55:02;32.40;;;15.77;;
24216;SDS011;12356;49.386;8.688;2023-03-01T06:57:33;35.78;;;16.02;;
24216;SDS011;12356;49.386;8.688;2023-03-01T07:00:03;34.08;;;15.48;;
24216;SDS011;12356;49.386;8.688;2023-03-01T07:02:35;30.75;;;15.50;;
24216;SDS011;12356;49.386;8.688;2023-03-01T07:05:06;30.92;;;15.35;;
24216;SDS011;12356;49.386;8.688;2023-03-01T07:07:37;34.55;;;15.55;;
24216;SDS011;12356;49.386;8.688;2023-03-01T07:10:07;32.40;;;15.07;;
24216;SDS011;12356;49.386;8.688;2023-03-01T07:12:39;30.55;;;15.15;;
24216;SDS011;12356;49.386;8.688;2023-03-01T07:15:11;32.08;;;15.98;;
24216;SDS011;12356;49.386;8.688;2023-03-01T07:17:41;29.85;;;15.00;;
24216;SDS011;12356;49.386;8.688;2023-03-01T07:22:45;29.40;;;14.50;;
24216;SDS011;12356;49.386;8.688;2023-03-01T07:25:15;30.33;;;13.93;;
24216;SDS011;12356;49.386;8.688;2023-03-01T07:27:49;33.13;;;16.13;;
24216;SDS011;12356;49.386;8.688;2023-03-01T07:30:23;30.35;;;15.20;;
24216;SDS011;12356;49.386;8.688;2023-03-01T07:32:57;28.77;;;14.48;;
24216;SDS011;12356;49.386;8.688;2023-03-01T07:35:28;31.52;;;15.48;;
24216;SDS011;12356;49.386;8.688;2023-03-01T07:37:59;28.55;;;15.00;;
24216;SDS011;12356;49.386;8.688;2023-03-01T07:40:29;28.67;;;14.65;;
24216;SDS011;12356;49.386;8.688;2023-03-01T07:43:00;28.13;;;14.32;;
24216;SDS011;12356;49.386;8.688;2023-03-01T07:45:31;30.60;;;15.20;;
24216;SDS011;12356;49.386;8.688;2023-03-01T07:48:01;29.60;;;14.98;;
24216;SDS011;12356;49.386;8.688;2023-03-01T07:50:32;28.08;;;14.25;;
24216;SDS011;12356;49.386;8.688;2023-03-01T07:53:03;30.42;;;14.85;;
24216;SDS011;12356;49.386;8.688;2023-03-01T07:55:34;28.57;;;15.13;;
24216;SDS011;12356;49.386;8.688;2023-03-01T07:58:05;30.90;;;15.13;;
24216;SDS011;12356;49.386;8.688;2023-03-01T08:00:35;28.70;;;15.07;;
24216;SDS011;12356;49.386;8.688;2023-03-01T08:03:06;29.45;;;14.20;;
24216;SDS011;12356;49.386;8.688;2023-03-01T08:05:36;26.90;;;14.32;;
24216;SDS011;12356;49.386;8.688;2023-03-01T08:08:07;31.77;;;15.73;;
24216;SDS011;12356;49.386;8.688;2023-03-01T08:10:37;29.92;;;15.75;;
24216;SDS011;12356;49.386;8.688;2023-03-01T08:13:08;29.08;;;15.15;;
24216;SDS011;12356;49.386;8.688;2023-03-01T08:15:38;31.48;;;15.25;;
24216;SDS011;12356;49.386;8.688;2023-03-01T08:18:09;29.33;;;15.15;;
24216;SDS011;12356;49.386;8.688;2023-03-01T08:20:39;29.42;;;15.02;;
24216;SDS011;12356;49.386;8.688;2023-03-01T08:23:10;35.15;;;15.23;;
24216;SDS011;12356;49.386;8.688;2023-03-01T08:25:41;32.13;;;15.35;;
24216;SDS011;12356;49.386;8.688;2023-03-01T08:28:12;31.23;;;15.13;;
24216;SDS011;12356;49.386;8.688;2023-03-01T08:30:42;29.65;;;14.90;;
24216;SDS011;12356;49.386;8.688;2023-03-01T08:33:13;29.88;;;14.93;;
24216;SDS011;12356;49.386;8.688;2023-03-01T08:35:43;29.30;;;15.63;;
24216;SDS011;12356;49.386;8.688;2023-03-01T08:38:14;29.38;;;15.65;;
24216;SDS011;12356;49.386;8.688;2023-03-01T08:40:44;29.25;;;15.55;;
24216;SDS011;12356;49.386;8.688;2023-03-01T08:43:15;28.02;;;15.43;;
24216;SDS011;12356;49.386;8.688;2023-03-01T08:45:48;32.67;;;16.30;;
24216;SDS011;12356;49.386;8.688;2023-03-01T08:48:18;31.45;;;16.17;;
24216;SDS011;12356;49.386;8.688;2023-03-01T08:50:49;28.08;;;15.23;;
24216;SDS011;12356;49.386;8.688;2023-03-01T08:53:19;28.63;;;15.95;;
24216;SDS011;12356;49.386;8.688;2023-03-01T08:55:50;35.00;;;16.10;;
24216;SDS011;12356;49.386;8.688;2023-03-01T08:58:20;31.40;;;15.75;;
24216;SDS011;12356;49.386;8.688;2023-03-01T09:00:51;28.65;;;16.25;;
24216;SDS011;12356;49.386;8.688;2023-03-01T09:03:22;30.33;;;16.13;;
24216;SDS011;12356;49.386;8.688;2023-03-01T09:05:53;31.42;;;16.58;;
24216;SDS011;12356;49.386;8.688;2023-03-01T09:08:30;32.38;;;16.95;;
24216;SDS011;12356;49.386;8.688;2023-03-01T09:11:04;29.33;;;15.95;;
24216;SDS011;12356;49.386;8.688;2023-03-01T09:13:36;31.48;;;15.95;;
24216;SDS011;12356;49.386;8.688;2023-03-01T09:16:07;31.98;;;16.77;;
24216;SDS011;12356;49.386;8.688;2023-03-01T09:18:38;30.50;;;16.35;;
24216;SDS011;12356;49.386;8.688;2023-03-01T09:21:13;30.73;;;16.60;;
24216;SDS011;12356;49.386;8.688;2023-03-01T09:23:46;29.70;;;16.30;;
24216;SDS011;12356;49.386;8.688;2023-03-01T09:26:18;31.67;;;17.02;;
24216;SDS011;12356;49.386;8.688;2023-03-01T09:28:52;30.27;;;17.23;;
24216;SDS011;12356;49.386;8.688;2023-03-01T09:31:23;33.30;;;17.08;;
24216;SDS011;12356;49.386;8.688;2023-03-01T09:33:54;31.02;;;16.80;;
24216;SDS011;12356;49.386;8.688;2023-03-01T09:36:25;30.50;;;16.98;;
24216;SDS011;12356;49.386;8.688;2023-03-01T09:38:56;32.22;;;17.48;;
24216;SDS011;12356;49.386;8.688;2023-03-01T09:44:10;31.65;;;16.83;;
24216;SDS011;12356;49.386;8.688;2023-03-01T09:46:59;30.92;;;17.48;;
24216;SDS011;12356;49.386;8.688;2023-03-01T09:49:31;30.25;;;16.88;;
24216;SDS011;12356;49.386;8.688;2023-03-01T09:54:54;32.25;;;17.23;;
24216;SDS011;12356;49.386;8.688;2023-03-01T09:57:28;29.42;;;16.67;;
24216;SDS011;12356;49.386;8.688;2023-03-01T10:00:24;30.88;;;16.30;;
24216;SDS011;12356;49.386;8.688;2023-03-01T10:03:08;30.13;;;16.73;;
24216;SDS011;12356;49.386;8.688;2023-03-01T10:08:38;31.00;;;17.00;;
24216;SDS011;12356;49.386;8.688;2023-03-01T10:11:21;30.50;;;17.15;;
24216;SDS011;12356;49.386;8.688;2023-03-01T10:17:09;31.17;;;17.05;;
24216;SDS011;12356;49.386;8.688;2023-03-01T10:19:43;29.27;;;16.55;;
24216;SDS011;12356;49.386;8.688;2023-03-01T10:22:17;30.90;;;17.02;;
24216;SDS011;12356;49.386;8.688;2023-03-01T10:24:56;30.77;;;16.63;;
24216;SDS011;12356;49.386;8.688;2023-03-01T10:30:13;30.52;;;16.85;;
24216;SDS011;12356;49.386;8.688;2023-03-01T10:32:51;29.50;;;16.58;;
24216;SDS011;12356;49.386;8.688;2023-03-01T10:35:27;29.50;;;16.38;;
24216;SDS011;12356;49.386;8.688;2023-03-01T10:38:10;29.33;;;16.88;;
24216;SDS011;12356;49.386;8.688;2023-03-01T10:41:16;34.50;;;16.58;;
24216;SDS011;12356;49.386;8.688;2023-03-01T10:43:44;30.20;;;16.50;;
24216;SDS011;12356;49.386;8.688;2023-03-01T10:46:30;27.63;;;16.38;;
24216;SDS011;12356;49.386;8.688;2023-03-01T10:51:52;30.13;;;17.05;;
24216;SDS011;12356;49.386;8.688;2023-03-01T10:54:28;27.25;;;15.95;;
24216;SDS011;12356;49.386;8.688;2023-03-01T10:57:01;27.17;;;15.55;;
24216;SDS011;12356;49.386;8.688;2023-03-01T10:59:34;24.27;;;14.07;;
24216;SDS011;12356;49.386;8.688;2023-03-01T11:04:56;24.48;;;14.23;;
24216;SDS011;12356;49.386;8.688;2023-03-01T11:10:20;26.67;;;15.35;;
24216;SDS011;12356;49.386;8.688;2023-03-01T11:12:56;25.98;;;14.60;;
24216;SDS011;12356;49.386;8.688;2023-03-01T11:16:05;24.85;;;14.20;;
24216;SDS011;12356;49.386;8.688;2023-03-01T11:18:37;26.10;;;14.40;;
24216;SDS011;12356;49.386;8.688;2023-03-01T11:21:08;25.83;;;15.25;;
24216;SDS011;12356;49.386;8.688;2023-03-01T11:23:39;26.30;;;14.10;;
24216;SDS011;12356;49.386;8.688;2023-03-01T11:26:13;25.48;;;14.75;;
24216;SDS011;12356;49.386;8.688;2023-03-01T11:28:47;25.65;;;14.98;;
24216;SDS011;12356;49.386;8.688;2023-03-01T11:31:21;29.05;;;14.77;;
24216;SDS011;12356;49.386;8.688;2023-03-01T11:36:40;24.13;;;13.85;;
24216;SDS011;12356;49.386;8.688;2023-03-01T11:39:41;24.35;;;13.88;;
24216;SDS011;12356;49.386;8.688;2023-03-01T11:42:38;23.85;;;13.63;;
24216;SDS011;12356;49.386;8.688;2023-03-01T11:45:15;23.63;;;13.18;;
24216;SDS011;12356;49.386;8.688;2023-03-01T11:48:05;24.92;;;14.10;;
24216;SDS011;12356;49.386;8.688;2023-03-01T11:50:52;24.75;;;13.75;;
24216;SDS011;12356;49.386;8.688;2023-03-01T11:53:44;23.73;;;13.80;;
24216;SDS011;12356;49.386;8.688;2023-03-01T11:59:31;22.25;;;13.45;;
24216;SDS011;12356;49.386;8.688;2023-03-01T12:02:34;24.17;;;13.98;;
24216;SDS011;12356;49.386;8.688;2023-03-01T12:08:22;22.75;;;13.32;;
24216;SDS011;12356;49.386;8.688;2023-03-01T12:11:03;23.75;;;13.52;;
24216;SDS011;12356;49.386;8.688;2023-03-01T12:16:52;26.08;;;13.98;;
24216;SDS011;12356;49.386;8.688;2023-03-01T12:19:41;23.98;;;13.82;;
24216;SDS011;12356;49.386;8.688;2023-03-01T12:22:32;23.67;;;13.83;;
24216;SDS011;12356;49.386;8.688;2023-03-01T12:28:22;21.67;;;13.35;;
24216;SDS011;12356;49.386;8.688;2023-03-01T12:31:02;21.35;;;13.70;;
24216;SDS011;12356;49.386;8.688;2023-03-01T12:36:38;22.05;;;13.80;;
24216;SDS011;12356;49.386;8.688;2023-03-01T12:44:44;21.63;;;12.43;;
24216;SDS011;12356;49.386;8.688;2023-03-01T12:47:30;21.00;;;12.38;;
24216;SDS011;12356;49.386;8.688;2023-03-01T12:50:14;20.40;;;12.93;;
24216;SDS011;12356;49.386;8.688;2023-03-01T12:52:51;22.52;;;12.73;;
24216;SDS011;12356;49.386;8.688;2023-03-01T12:55:33;22.20;;;13.20;;
24216;SDS011;12356;49.386;8.688;2023-03-01T13:01:01;22.65;;;13.10;;
24216;SDS011;12356;49.386;8.688;2023-03-01T13:06:41;23.00;;;13.45;;
24216;SDS011;12356;49.386;8.688;2023-03-01T13:12:43;20.95;;;12.23;;
24216;SDS011;12356;49.386;8.688;2023-03-01T13:17:57;24.83;;;12.48;;
24216;SDS011;12356;49.386;8.688;2023-03-01T13:26:08;22.70;;;13.40;;
24216;SDS011;12356;49.386;8.688;2023-03-01T13:33:48;21.67;;;12.65;;
24216;SDS011;12356;49.386;8.688;2023-03-01T13:37:02;22.10;;;12.30;;
24216;SDS011;12356;49.386;8.688;2023-03-01T13:39:28;20.70;;;12.73;;
24216;SDS011;12356;49.386;8.688;2023-03-01T13:42:24;20.40;;;12.35;;
24216;SDS011;12356;49.386;8.688;2023-03-01T13:48:03;22.23;;;12.60;;
24216;SDS011;12356;49.386;8.688;2023-03-01T13:50:47;22.23;;;12.77;;
24216;SDS011;12356;49.386;8.688;2023-03-01T13:53:25;20.35;;;12.70;;
24216;SDS011;12356;49.386;8.688;2023-03-01T13:56:00;21.33;;;12.57;;
24216;SDS011;12356;49.386;8.688;2023-03-01T13:58:53;22.35;;;12.57;;
24216;SDS011;12356;49.386;8.688;2023-03-01T14:01:25;20.08;;;12.13;;
24216;SDS011;12356;49.386;8.688;2023-03-01T14:04:14;19.48;;;11.55;;
24216;SDS011;12356;49.386;8.688;2023-03-01T14:07:12;18.25;;;11.57;;
24216;SDS011;12356;49.386;8.688;2023-03-01T14:09:54;17.92;;;11.40;;
24216;SDS011;12356;49.386;8.688;2023-03-01T14:15:14;18.23;;;11.43;;
24216;SDS011;12356;49.386;8.688;2023-03-01T14:17:59;18.60;;;11.55;;
24216;SDS011;12356;49.386;8.688;2023-03-01T14:20:38;21.13;;;11.77;;
24216;SDS011;12356;49.386;8.688;2023-03-01T14:23:12;17.35;;;11.18;;
24216;SDS011;12356;49.386;8.688;2023-03-01T14:25:50;21.00;;;12.30;;
24216;SDS011;12356;49.386;8.688;2023-03-01T14:28:27;19.95;;;11.73;;
24216;SDS011;12356;49.386;8.688;2023-03-01T14:31:29;18.70;;;11.32;;
24216;SDS011;12356;49.386;8.688;2023-03-01T14:34:16;21.02;;;12.35;;
24216;SDS011;12356;49.386;8.688;2023-03-01T14:36:50;21.02;;;11.63;;
24216;SDS011;12356;49.386;8.688;2023-03-01T14:39:25;18.45;;;11.45;;
24216;SDS011;12356;49.386;8.688;2023-03-01T14:41:56;18.35;;;11.43;;
24216;SDS011;12356;49.386;8.688;2023-03-01T14:44:28;19.60;;;11.73;;
24216;SDS011;12356;49.386;8.688;2023-03-01T14:46:59;19.08;;;11.88;;
24216;SDS011;12356;49.386;8.688;2023-03-01T14:49:32;22.27;;;13.00;;
24216;SDS011;12356;49.386;8.688;2023-03-01T14:52:07;22.58;;;12.07;;
24216;SDS011;12356;49.386;8.688;2023-03-01T14:54:48;21.30;;;12.25;;
24216;SDS011;12356;49.386;8.688;2023-03-01T14:57:22;21.98;;;12.98;;
24216;SDS011;12356;49.386;8.688;2023-03-01T15:00:00;20.65;;;11.80;;
24216;SDS011;12356;49.386;8.688;2023-03-01T15:02:36;19.35;;;11.68;;
24216;SDS011;12356;49.386;8.688;2023-03-01T15:05:07;19.27;;;11.90;;
24216;SDS011;12356;49.386;8.688;2023-03-01T15:07:39;19.80;;;12.38;;
24216;SDS011;12356;49.386;8.688;2023-03-01T15:10:29;19.25;;;11.52;;
24216;SDS011;12356;49.386;8.688;2023-03-01T15:13:19;18.13;;;11.48;;
24216;SDS011;12356;49.386;8.688;2023-03-01T15:16:12;21.40;;;12.10;;
24216;SDS011;12356;49.386;8.688;2023-03-01T15:19:06;21.42;;;12.15;;
24216;SDS011;12356;49.386;8.688;2023-03-01T15:21:37;19.75;;;12.25;;
24216;SDS011;12356;49.386;8.688;2023-03-01T15:24:16;20.80;;;12.10;;
24216;SDS011;12356;49.386;8.688;2023-03-01T15:26:51;17.73;;;11.60;;
24216;SDS011;12356;49.386;8.688;2023-03-01T15:29:28;21.80;;;12.98;;
24216;SDS011;12356;49.386;8.688;2023-03-01T15:32:01;20.70;;;11.15;;
24216;SDS011;12356;49.386;8.688;2023-03-01T15:34:37;19.80;;;11.32;;
24216;SDS011;12356;49.386;8.688;2023-03-01T15:40:23;18.75;;;11.27;;
24216;SDS011;12356;49.386;8.688;2023-03-01T15:43:35;19.40;;;11.57;;
24216;SDS011;12356;49.386;8.688;2023-03-01T15:46:35;20.60;;;11.93;;
24216;SDS011;12356;49.386;8.688;2023-03-01T15:52:17;21.27;;;11.23;;
24216;SDS011;12356;49.386;8.688;2023-03-01T15:54:59;19.35;;;11.98;;
24216;SDS011;12356;49.386;8.688;2023-03-01T15:57:32;20.08;;;11.98;;
24216;SDS011;12356;49.386;8.688;2023-03-01T16:00:02;21.48;;;12.07;;
24216;SDS011;12356;49.386;8.688;2023-03-01T16:02:41;20.88;;;11.63;;
24216;SDS011;12356;49.386;8.688;2023-03-01T16:05:18;20.75;;;11.32;;
24216;SDS011;12356;49.386;8.688;2023-03-01T16:07:53;20.27;;;11.32;;
24216;SDS011;12356;49.386;8.688;2023-03-01T16:10:24;21.58;;;12.05;;
24216;SDS011;12356;49.386;8.688;2023-03-01T16:12:55;21.88;;;10.98;;
24216;SDS011;12356;49.386;8.688;2023-03-01T16:15:27;19.30;;;11.85;;
24216;SDS011;12356;49.386;8.688;2023-03-01T16:18:02;19.13;;;11.60;;
24216;SDS011;12356;49.386;8.688;2023-03-01T16:20:33;19.05;;;11.38;;
24216;SDS011;12356;49.386;8.688;2023-03-01T16:23:05;20.38;;;12.18;;
24216;SDS011;12356;49.386;8.688;2023-03-01T16:25:37;20.15;;;11.93;;
24216;SDS011;12356;49.386;8.688;2023-03-01T16:28:08;19.90;;;11.68;;
24216;SDS011;12356;49.386;8.688;2023-03-01T16:30:40;19.88;;;11.55;;
24216;SDS011;12356;49.386;8.688;2023-03-01T16:33:10;23.17;;;11.77;;
24216;SDS011;12356;49.386;8.688;2023-03-01T16:35:41;18.77;;;11.40;;
24216;SDS011;12356;49.386;8.688;2023-03-01T16:38:13;18.80;;;11.32;;
24216;SDS011;12356;49.386;8.688;2023-03-01T16:40:46;20.15;;;11.18;;
24216;SDS011;12356;49.386;8.688;2023-03-01T16:43:19;19.73;;;11.48;;